createdAt,value
2018-11-23T00:02:27.886Z,97517.33
2018-11-23T00:04:58.843Z,97532.81
2018-11-23T00:07:29.712Z,97534.48
2018-11-23T00:10:00.910Z,97550.69
2018-11-23T00:12:32.027Z,97544.86
2018-11-23T00:15:03.340Z,97551.02
2018-11-23T00:17:34.490Z,97555.67
2018-11-23T00:20:07.505Z,97556.33
2018-11-23T00:22:38.673Z,97563.03
2018-11-23T00:25:12.562Z,97562.23
2018-11-23T00:27:43.716Z,97557.58
2018-11-23T00:30:26.636Z,97559.00
2018-11-23T00:32:57.861Z,97569.25
2018-11-23T00:35:30.193Z,97560.94
2018-11-23T00:38:01.430Z,97560.08
2018-11-23T00:40:33.070Z,97555.92
2018-11-23T00:43:04.179Z,97549.36
2018-11-23T00:45:35.751Z,97554.91
2018-11-23T00:48:07.597Z,97550.15
2018-11-23T00:50:38.580Z,97556.06
2018-11-23T00:53:09.692Z,97550.04
2018-11-23T00:55:40.796Z,97545.88
2018-11-23T00:58:13.848Z,97551.77
2018-11-23T01:00:45.019Z,97550.30
2018-11-23T01:03:16.301Z,97549.42
2018-11-23T01:05:48.310Z,97551.48
2018-11-23T01:08:19.622Z,97548.48
2018-11-23T01:10:50.891Z,97550.84
2018-11-23T01:13:22.079Z,97548.94
2018-11-23T01:15:53.155Z,97551.48
2018-11-23T01:18:24.229Z,97547.08
2018-11-23T01:20:55.340Z,97552.25
2018-11-23T01:23:26.660Z,97546.34
2018-11-23T01:25:57.787Z,97552.56
2018-11-23T01:28:29.004Z,97558.22
2018-11-23T01:31:00.059Z,97553.11
2018-11-23T01:33:31.409Z,97553.32
2018-11-23T01:36:03.350Z,97553.58
2018-11-23T01:38:34.427Z,97555.93
2018-11-23T01:41:05.974Z,97544.67
2018-11-23T01:43:37.285Z,97538.95
2018-11-23T01:46:08.551Z,97548.41
2018-11-23T01:48:39.860Z,97552.77
2018-11-23T01:51:11.089Z,97549.36
2018-11-23T01:53:42.137Z,97552.82
2018-11-23T01:56:13.362Z,97545.92
2018-11-23T01:58:44.500Z,97548.03
2018-11-23T02:01:16.362Z,97544.53
2018-11-23T02:03:47.775Z,97547.80
2018-11-23T02:06:18.900Z,97543.93
2018-11-23T02:08:50.568Z,97548.23
2018-11-23T02:11:22.379Z,97550.15
2018-11-23T02:13:53.450Z,97546.13
2018-11-23T02:16:24.564Z,97547.73
2018-11-23T02:18:55.733Z,97549.48
2018-11-23T02:21:26.931Z,97544.98
2018-11-23T02:23:58.375Z,97545.53
2018-11-23T02:26:29.248Z,97536.82
2018-11-23T02:29:00.358Z,97536.97
2018-11-23T02:31:32.210Z,97540.25
2018-11-23T02:34:03.101Z,97536.48
2018-11-23T02:36:34.056Z,97541.78
2018-11-23T02:39:07.467Z,97549.61
2018-11-23T02:41:38.496Z,97550.15
2018-11-23T02:44:09.762Z,97555.05
2018-11-23T02:46:41.207Z,97550.16
2018-11-23T02:49:12.817Z,97546.54
2018-11-23T02:51:44.012Z,97545.27
2018-11-23T02:54:15.587Z,97551.69
2018-11-23T02:56:47.690Z,97544.81
2018-11-23T02:59:18.634Z,97548.94
2018-11-23T03:01:49.568Z,97547.56
2018-11-23T03:04:20.525Z,97556.58
2018-11-23T03:06:51.801Z,97557.32
2018-11-23T03:09:22.856Z,97550.70
2018-11-23T03:11:54.191Z,97554.03
2018-11-23T03:14:25.055Z,97556.73
2018-11-23T03:16:56.116Z,97550.64
2018-11-23T03:19:27.027Z,97549.17
2018-11-23T03:21:58.288Z,97544.72
2018-11-23T03:24:29.228Z,97552.17
2018-11-23T03:27:00.716Z,97543.31
2018-11-23T03:29:31.765Z,97547.47
2018-11-23T03:32:02.683Z,97547.33
2018-11-23T03:34:33.520Z,97543.51
2018-11-23T03:37:04.545Z,97540.17
2018-11-23T03:39:35.493Z,97538.90
2018-11-23T03:42:06.651Z,97552.71
2018-11-23T03:44:37.783Z,97550.61
2018-11-23T03:47:08.778Z,97551.89
2018-11-23T03:49:40.192Z,97546.98
2018-11-23T03:52:11.120Z,97549.48
2018-11-23T03:54:42.194Z,97551.69
2018-11-23T03:57:13.259Z,97555.12
2018-11-23T03:59:44.213Z,97550.95
2018-11-23T04:02:15.204Z,97549.68
2018-11-23T04:04:46.171Z,97550.02
2018-11-23T04:07:17.060Z,97548.89
2018-11-23T04:09:47.957Z,97551.89
2018-11-23T04:12:19.022Z,97556.78
2018-11-23T04:14:50.113Z,97556.84
2018-11-23T04:17:21.335Z,97555.91
2018-11-23T04:19:52.324Z,97554.58
2018-11-23T04:22:23.367Z,97564.23
2018-11-23T04:24:54.574Z,97560.95
2018-11-23T04:27:25.606Z,97558.45
2018-11-23T04:29:56.636Z,97563.69
2018-11-23T04:32:27.791Z,97565.11
2018-11-23T04:34:59.102Z,97557.13
2018-11-23T04:37:30.037Z,97560.13
2018-11-23T04:40:05.137Z,97555.56
2018-11-23T04:42:36.450Z,97560.27
2018-11-23T04:45:08.099Z,97555.75
2018-11-23T04:47:42.752Z,97558.30
2018-11-23T04:50:15.745Z,97559.52
2018-11-23T04:53:02.107Z,97556.83
2018-11-23T04:55:33.072Z,97561.05
2018-11-23T04:58:04.108Z,97561.39
2018-11-23T05:00:35.052Z,97566.83
2018-11-23T05:03:06.286Z,97560.70
2018-11-23T05:05:37.197Z,97571.88
2018-11-23T05:08:11.176Z,97577.02
2018-11-23T05:10:42.121Z,97580.84
2018-11-23T05:13:12.981Z,97576.28
2018-11-23T05:15:43.978Z,97577.75
2018-11-23T05:18:14.990Z,97585.94
2018-11-23T05:20:46.189Z,97585.80
2018-11-23T05:23:17.251Z,97589.14
2018-11-23T05:25:48.415Z,97587.55
2018-11-23T05:28:19.436Z,97581.38
2018-11-23T05:30:50.922Z,97579.97
2018-11-23T05:33:21.851Z,97571.98
2018-11-23T05:35:52.921Z,97577.16
2018-11-23T05:38:24.129Z,97576.73
2018-11-23T05:40:55.655Z,97578.01
2018-11-23T05:43:26.699Z,97579.08
2018-11-23T05:45:57.650Z,97573.34
2018-11-23T05:48:28.516Z,97572.38
2018-11-23T05:50:59.482Z,97563.94
2018-11-23T05:53:30.433Z,97566.09
2018-11-23T05:56:01.783Z,97561.97
2018-11-23T05:58:32.652Z,97566.62
2018-11-23T06:01:03.801Z,97560.30
2018-11-23T06:03:35.096Z,97558.64
2018-11-23T06:06:06.237Z,97568.24
2018-11-23T06:08:37.335Z,97564.92
2018-11-23T06:11:08.845Z,97567.36
2018-11-23T06:13:40.532Z,97570.31
2018-11-23T06:16:12.090Z,97574.92
2018-11-23T06:18:43.144Z,97575.70
2018-11-23T06:21:14.354Z,97571.19
2018-11-23T06:23:45.512Z,97571.63
2018-11-23T06:26:22.993Z,97568.30
2018-11-23T06:28:54.641Z,97552.66
2018-11-23T06:31:25.661Z,97556.83
2018-11-23T06:33:56.829Z,97565.61
2018-11-23T06:36:27.951Z,97563.40
2018-11-23T06:38:59.031Z,97564.33
2018-11-23T06:41:30.312Z,97560.51
2018-11-23T06:44:01.895Z,97570.36
2018-11-23T06:46:33.222Z,97565.50
2018-11-23T06:49:04.625Z,97575.16
2018-11-23T06:51:36.248Z,97569.32
2018-11-23T06:54:08.550Z,97571.98
2018-11-23T06:56:40.060Z,97571.92
2018-11-23T06:59:11.250Z,97573.59
2018-11-23T07:01:42.443Z,97581.78
2018-11-23T07:04:13.680Z,97574.19
2018-11-23T07:06:44.895Z,97586.88
2018-11-23T07:09:16.302Z,97587.81
2018-11-23T07:11:47.456Z,97583.39
2018-11-23T07:14:18.590Z,97586.68
2018-11-23T07:16:49.755Z,97587.61
2018-11-23T07:19:20.762Z,97573.55
2018-11-23T07:21:52.081Z,97575.12
2018-11-23T07:24:23.090Z,97572.38
2018-11-23T07:26:54.317Z,97564.73
2018-11-23T07:29:25.463Z,97560.61
2018-11-23T07:31:56.743Z,97571.44
2018-11-23T07:34:28.117Z,97567.56
2018-11-23T07:36:59.361Z,97576.14
2018-11-23T07:40:25.570Z,97564.27
2018-11-23T07:42:57.196Z,97567.35
2018-11-23T07:45:28.656Z,97570.16
2018-11-23T07:47:59.951Z,97571.23
2018-11-23T07:50:31.105Z,97578.75
2018-11-23T07:53:02.269Z,97578.30
2018-11-23T07:55:33.544Z,97579.52
2018-11-23T07:58:04.757Z,97578.44
2018-11-23T08:00:35.938Z,97589.28
2018-11-23T08:03:07.615Z,97576.08
2018-11-23T08:05:39.112Z,97573.11
2018-11-23T08:08:10.455Z,97582.11
2018-11-23T08:10:40.272Z,97580.75
2018-11-23T08:13:11.727Z,97591.34
2018-11-23T08:15:42.981Z,97585.25
2018-11-23T08:18:14.271Z,97588.25
2018-11-23T08:20:45.546Z,97593.30
2018-11-23T08:23:16.632Z,97589.08
2018-11-23T08:25:47.821Z,97590.21
2018-11-23T08:28:18.717Z,97585.30
2018-11-23T08:30:49.786Z,97585.69
2018-11-23T08:33:21.524Z,97581.28
2018-11-23T08:35:52.828Z,97590.49
2018-11-23T08:38:23.936Z,97595.01
2018-11-23T08:40:55.169Z,97588.33
2018-11-23T08:43:26.751Z,97589.66
2018-11-23T08:45:57.867Z,97582.64
2018-11-23T08:48:29.092Z,97572.34
2018-11-23T08:51:00.231Z,97578.77
2018-11-23T08:53:35.368Z,97581.27
2018-11-23T08:56:07.077Z,97575.42
2018-11-23T08:58:38.329Z,97578.37
2018-11-23T09:01:09.602Z,97580.33
2018-11-23T09:03:40.866Z,97575.58
2018-11-23T09:06:12.115Z,97581.77
2018-11-23T09:08:43.402Z,97585.69
2018-11-23T09:11:14.732Z,97586.41
2018-11-23T09:13:46.055Z,97584.75
2018-11-23T09:16:17.212Z,97582.78
2018-11-23T09:18:48.840Z,97596.36
2018-11-23T09:21:20.388Z,97585.92
2018-11-23T09:23:51.522Z,97591.45
2018-11-23T09:26:22.821Z,97589.26
2018-11-23T09:28:54.062Z,97577.40
2018-11-23T09:31:25.974Z,97568.86
2018-11-23T09:33:57.104Z,97561.05
2018-11-23T09:36:28.485Z,97556.48
2018-11-23T09:39:00.022Z,97558.39
2018-11-23T09:41:31.655Z,97547.61
2018-11-23T09:44:02.923Z,97547.91
2018-11-23T09:46:33.967Z,97540.46
2018-11-23T09:49:05.579Z,97532.11
2018-11-23T09:51:36.710Z,97536.29
2018-11-23T09:54:08.345Z,97540.33
2018-11-23T09:56:39.806Z,97542.83
2018-11-23T09:59:10.971Z,97540.84
2018-11-23T10:01:42.634Z,97553.98
2018-11-23T10:04:13.944Z,97554.94
2018-11-23T10:06:45.258Z,97543.70
2018-11-23T10:09:16.990Z,97537.05
2018-11-23T10:11:47.984Z,97549.25
2018-11-23T10:14:19.280Z,97550.32
2018-11-23T10:16:50.559Z,97547.56
2018-11-23T10:19:40.804Z,97548.14
2018-11-23T10:22:12.148Z,97544.08
2018-11-23T10:24:43.337Z,97551.20
2018-11-23T10:27:14.595Z,97547.42
2018-11-23T10:29:45.665Z,97548.91
2018-11-23T10:32:17.153Z,97550.27
2018-11-23T10:34:48.568Z,97533.39
2018-11-23T10:37:19.704Z,97534.67
2018-11-23T10:39:50.950Z,97532.60
2018-11-23T10:42:22.145Z,97534.45
2018-11-23T10:44:53.457Z,97520.70
2018-11-23T10:47:24.509Z,97528.09
2018-11-23T10:49:55.955Z,97525.23
2018-11-23T10:52:26.989Z,97519.34
2018-11-23T10:54:58.135Z,97510.37
2018-11-23T10:57:29.418Z,97503.70
2018-11-23T11:00:00.647Z,97500.59
2018-11-23T11:02:44.922Z,97494.47
2018-11-23T11:05:38.155Z,97481.44
2018-11-23T11:08:09.801Z,97485.66
2018-11-23T11:10:41.138Z,97483.05
2018-11-23T11:13:12.431Z,97478.00
2018-11-23T11:15:43.641Z,97468.28
2018-11-23T11:18:14.838Z,97453.25
2018-11-23T11:20:45.961Z,97443.80
2018-11-23T11:23:17.178Z,97448.85
2018-11-23T11:25:48.187Z,97464.77
2018-11-23T11:28:19.532Z,97457.02
2018-11-23T11:30:50.757Z,97445.62
2018-11-23T11:33:21.945Z,97444.03
2018-11-23T11:35:53.283Z,97436.56
2018-11-23T11:38:24.432Z,97436.99
2018-11-23T11:40:55.969Z,97444.30
2018-11-23T11:43:27.001Z,97430.11
2018-11-23T11:45:58.230Z,97428.81
2018-11-23T11:48:29.324Z,97431.28
2018-11-23T11:51:00.967Z,97429.62
2018-11-23T11:53:32.016Z,97434.51
2018-11-23T11:56:03.353Z,97434.28
2018-11-23T11:58:34.435Z,97434.20
2018-11-23T12:01:05.828Z,97422.36
2018-11-23T12:03:37.269Z,97427.76
2018-11-23T12:06:08.630Z,97427.05
2018-11-23T12:08:39.840Z,97414.16
2018-11-23T12:11:10.707Z,97405.84
2018-11-23T12:13:41.569Z,97405.12
2018-11-23T12:16:12.541Z,97399.28
2018-11-23T12:18:44.281Z,97397.41
2018-11-23T12:21:15.242Z,97400.27
2018-11-23T12:23:46.400Z,97395.96
2018-11-23T12:26:18.040Z,97391.83
2018-11-23T12:28:49.436Z,97388.56
2018-11-23T12:31:20.698Z,97379.66
2018-11-23T12:33:52.454Z,97374.92
2018-11-23T12:36:23.613Z,97377.57
2018-11-23T12:38:54.678Z,97375.86
2018-11-23T12:41:26.133Z,97380.61
2018-11-23T12:43:57.460Z,97371.23
2018-11-23T12:46:28.403Z,97376.34
2018-11-23T12:48:59.340Z,97377.70
2018-11-23T12:51:30.393Z,97373.88
2018-11-23T12:54:01.353Z,97368.34
2018-11-23T12:56:32.349Z,97367.06
2018-11-23T12:59:03.220Z,97366.84
2018-11-23T13:01:34.080Z,97355.45
2018-11-23T13:04:05.552Z,97354.67
2018-11-23T13:06:36.511Z,97346.32
2018-11-23T13:09:09.758Z,97335.99
2018-11-23T13:11:42.800Z,97333.22
2018-11-23T13:14:13.864Z,97327.91
2018-11-23T13:16:44.920Z,97327.25
2018-11-23T13:19:15.896Z,97319.99
2018-11-23T13:21:47.061Z,97324.82
2018-11-23T13:24:18.226Z,97323.30
2018-11-23T13:26:49.290Z,97321.62
2018-11-23T13:29:20.418Z,97323.15
2018-11-23T13:31:51.304Z,97325.67
2018-11-23T13:34:22.817Z,97323.13
2018-11-23T13:36:54.163Z,97326.59
2018-11-23T13:39:25.149Z,97336.52
2018-11-23T13:41:56.292Z,97339.47
2018-11-23T13:44:27.282Z,97347.59
2018-11-23T13:46:58.293Z,97341.39
2018-11-23T13:49:29.728Z,97335.20
2018-11-23T13:52:01.035Z,97335.98
2018-11-23T13:54:32.245Z,97319.77
2018-11-23T13:57:03.492Z,97324.65
2018-11-23T13:59:34.687Z,97311.60
2018-11-23T14:02:05.789Z,97321.41
2018-11-23T14:04:37.107Z,97317.23
2018-11-23T14:07:08.235Z,97317.98
2018-11-23T14:09:39.417Z,97312.00
2018-11-23T14:12:10.589Z,97310.11
2018-11-23T14:14:41.907Z,97298.69
2018-11-23T14:17:13.266Z,97300.76
2018-11-23T14:19:44.118Z,97298.11
2018-11-23T14:22:15.298Z,97290.07
2018-11-23T14:24:46.250Z,97281.64
2018-11-23T14:27:17.378Z,97279.80
2018-11-23T14:29:48.236Z,97281.72
2018-11-23T14:32:19.757Z,97275.17
2018-11-23T14:34:51.531Z,97277.47
2018-11-23T14:37:22.462Z,97272.84
2018-11-23T14:39:53.538Z,97270.34
2018-11-23T14:42:24.445Z,97270.30
2018-11-23T14:44:55.420Z,97264.28
2018-11-23T14:47:26.277Z,97253.44
2018-11-23T14:49:57.319Z,97256.98
2018-11-23T14:52:28.387Z,97255.06
2018-11-23T14:54:59.756Z,97254.09
2018-11-23T14:57:30.971Z,97254.67
2018-11-23T15:00:02.065Z,97254.54
2018-11-23T15:02:33.136Z,97253.84
2018-11-23T15:05:04.262Z,97255.55
2018-11-23T15:07:35.238Z,97253.79
2018-11-23T15:10:11.920Z,97252.98
2018-11-23T15:12:43.128Z,97252.81
2018-11-23T15:15:16.293Z,97262.36
2018-11-23T15:17:48.496Z,97258.94
2018-11-23T15:20:24.808Z,97255.94
2018-11-23T15:23:08.085Z,97251.37
2018-11-23T15:25:39.415Z,97252.47
2018-11-23T15:28:12.532Z,97252.81
2018-11-23T15:30:44.309Z,97245.17
2018-11-23T15:33:16.981Z,97253.61
2018-11-23T15:35:48.810Z,97244.34
2018-11-23T15:38:27.272Z,97243.16
2018-11-23T15:40:58.579Z,97244.83
2018-11-23T15:43:29.741Z,97246.10
2018-11-23T15:46:00.824Z,97241.01
2018-11-23T15:48:31.974Z,97244.00
2018-11-23T15:51:09.791Z,97242.20
2018-11-23T15:53:40.845Z,97235.44
2018-11-23T15:56:11.983Z,97221.77
2018-11-23T15:58:43.307Z,97226.08
2018-11-23T16:01:14.537Z,97228.19
2018-11-23T16:03:45.777Z,97214.27
2018-11-23T16:06:16.827Z,97225.64
2018-11-23T16:08:48.025Z,97229.55
2018-11-23T16:11:18.965Z,97219.00
2018-11-23T16:13:50.634Z,97229.59
2018-11-23T16:16:22.473Z,97221.07
2018-11-23T16:18:53.465Z,97229.02
2018-11-23T16:21:24.722Z,97221.25
2018-11-23T16:23:55.644Z,97224.19
2018-11-23T16:26:26.653Z,97223.75
2018-11-23T16:28:57.977Z,97215.41
2018-11-23T16:31:29.116Z,97215.41
2018-11-23T16:34:00.303Z,97221.95
2018-11-23T16:36:31.415Z,97215.58
2018-11-23T16:39:02.584Z,97219.92
2018-11-23T16:41:33.709Z,97211.46
2018-11-23T16:44:04.898Z,97211.46
2018-11-23T16:46:36.392Z,97214.48
2018-11-23T16:49:07.554Z,97215.36
2018-11-23T16:51:38.615Z,97212.51
2018-11-23T16:54:09.595Z,97210.09
2018-11-23T16:56:45.718Z,97203.72
2018-11-23T16:59:16.991Z,97200.34
2018-11-23T17:01:48.737Z,97195.33
2018-11-23T17:04:20.217Z,97191.42
2018-11-23T17:06:51.448Z,97197.48
2018-11-23T17:09:22.696Z,97193.30
2018-11-23T17:14:26.940Z,97190.27
2018-11-23T17:17:01.922Z,97188.83
2018-11-23T17:19:34.118Z,97186.94
2018-11-23T17:22:14.806Z,97187.03
2018-11-23T17:24:46.841Z,97178.59
2018-11-23T17:27:18.317Z,97175.56
2018-11-23T17:29:49.306Z,97170.24
2018-11-23T17:32:21.009Z,97161.89
2018-11-23T17:34:52.725Z,97163.12
2018-11-23T17:37:23.901Z,97156.44
2018-11-23T17:39:57.665Z,97148.75
2018-11-23T17:42:28.772Z,97144.97
2018-11-23T17:45:00.216Z,97141.06
2018-11-23T17:47:31.407Z,97135.73
2018-11-23T17:50:02.280Z,97122.64
2018-11-23T17:52:33.554Z,97126.38
2018-11-23T17:55:04.643Z,97115.34
2018-11-23T17:57:36.007Z,97114.16
2018-11-23T18:00:11.021Z,97110.57
2018-11-23T18:02:42.285Z,97108.55
2018-11-23T18:05:14.996Z,97101.77
2018-11-23T18:07:46.197Z,97103.77
2018-11-23T18:10:36.402Z,97097.59
2018-11-23T18:13:07.750Z,97088.36
2018-11-23T18:15:38.845Z,97085.80
2018-11-23T18:18:10.341Z,97090.34
2018-11-23T18:20:42.525Z,97082.86
2018-11-23T18:23:14.092Z,97087.44
2018-11-23T18:25:45.568Z,97079.84
2018-11-23T18:28:16.784Z,97077.72
2018-11-23T18:30:48.291Z,97078.72
2018-11-23T18:33:19.493Z,97068.45
2018-11-23T18:35:50.564Z,97074.46
2018-11-23T18:38:21.909Z,97075.62
2018-11-23T18:40:53.109Z,97073.22
2018-11-23T18:43:24.320Z,97071.03
2018-11-23T18:45:55.467Z,97066.37
2018-11-23T18:48:26.587Z,97055.59
2018-11-23T18:50:57.730Z,97047.91
2018-11-23T18:53:28.874Z,97048.78
2018-11-23T18:56:00.321Z,97041.94
2018-11-23T18:58:31.651Z,97045.59
2018-11-23T19:01:02.766Z,97037.72
2018-11-23T19:03:34.025Z,97024.10
2018-11-23T19:06:05.329Z,97031.62
2018-11-23T19:08:36.804Z,97027.01
2018-11-23T19:11:08.621Z,97017.53
2018-11-23T19:13:39.668Z,97028.28
2018-11-23T19:16:11.519Z,97027.45
2018-11-23T19:18:42.804Z,97025.62
2018-11-23T19:21:13.874Z,97013.23
2018-11-23T19:23:45.061Z,97004.44
2018-11-23T19:26:16.616Z,96996.92
2018-11-23T19:28:48.168Z,96985.98
2018-11-23T19:31:19.429Z,96980.69
2018-11-23T19:33:50.887Z,96974.00
2018-11-23T19:36:22.327Z,96964.48
2018-11-23T19:38:53.541Z,96955.50
2018-11-23T19:41:26.060Z,96955.58
2018-11-23T19:43:56.931Z,96954.30
2018-11-23T19:46:28.158Z,96963.30
2018-11-23T19:48:59.685Z,96962.54
2018-11-23T19:51:31.030Z,96953.58
2018-11-23T19:54:02.002Z,96945.27
2018-11-23T19:56:33.245Z,96941.05
2018-11-23T19:59:04.454Z,96927.20
2018-11-23T20:01:35.961Z,96921.44
2018-11-23T20:04:07.614Z,96920.20
2018-11-23T20:06:42.864Z,96914.75
2018-11-23T20:09:12.298Z,96918.53
2018-11-23T20:11:43.454Z,96916.61
2018-11-23T20:14:15.283Z,96921.70
2018-11-23T20:16:46.675Z,96925.68
2018-11-23T20:19:18.035Z,96929.06
2018-11-23T20:21:49.501Z,96918.08
2018-11-23T20:24:20.805Z,96926.48
2018-11-23T20:26:52.141Z,96923.64
2018-11-23T20:29:23.651Z,96919.47
2018-11-23T20:31:55.181Z,96929.18
2018-11-23T20:34:27.880Z,96945.48
2018-11-23T20:36:59.610Z,96936.69
2018-11-23T20:39:31.098Z,96923.11
2018-11-23T20:42:02.367Z,96920.16
2018-11-23T20:44:33.902Z,96927.41
2018-11-23T20:47:05.010Z,96924.58
2018-11-23T20:49:36.445Z,96915.77
2018-11-23T20:52:07.927Z,96915.51
2018-11-23T20:54:39.115Z,96911.44
2018-11-23T20:57:10.480Z,96906.95
2018-11-23T20:59:41.610Z,96905.17
2018-11-23T21:02:12.790Z,96904.45
2018-11-23T21:04:44.338Z,96892.62
2018-11-23T21:07:15.360Z,96892.55
2018-11-23T21:09:46.505Z,96884.31
2018-11-23T21:12:17.816Z,96879.73
2018-11-23T21:14:49.058Z,96872.41
2018-11-23T21:17:21.018Z,96867.72
2018-11-23T21:19:52.264Z,96876.38
2018-11-23T21:22:23.648Z,96874.64
2018-11-23T21:24:55.338Z,96860.00
2018-11-23T21:27:26.537Z,96863.27
2018-11-23T21:29:58.431Z,96862.18
2018-11-23T21:32:30.135Z,96864.80
2018-11-23T21:35:01.577Z,96862.72
2018-11-23T21:37:33.026Z,96861.02
2018-11-23T21:40:04.583Z,96862.53
2018-11-23T21:42:36.124Z,96848.66
2018-11-23T21:45:09.303Z,96841.81
2018-11-23T21:47:40.761Z,96837.08
2018-11-23T21:50:14.171Z,96837.45
2018-11-23T21:52:46.063Z,96829.87
2018-11-23T21:55:26.819Z,96827.02
2018-11-23T21:57:58.584Z,96824.51
2018-11-23T22:00:30.115Z,96819.04
2018-11-23T22:03:01.989Z,96822.42
2018-11-23T22:05:33.334Z,96816.48
2018-11-23T22:08:04.991Z,96813.03
2018-11-23T22:10:36.175Z,96809.28
2018-11-23T22:13:07.864Z,96800.02
2018-11-23T22:15:38.965Z,96788.17
2018-11-23T22:18:10.408Z,96803.47
2018-11-23T22:20:41.540Z,96805.59
2018-11-23T22:23:12.791Z,96807.30
2018-11-23T22:25:43.740Z,96816.13
2018-11-23T22:28:15.105Z,96816.13
2018-11-23T22:30:46.152Z,96806.39
2018-11-23T22:33:17.675Z,96803.84
2018-11-23T22:35:49.187Z,96803.84
2018-11-23T22:38:20.438Z,96804.08
2018-11-23T22:40:51.940Z,96798.11
2018-11-23T22:43:23.127Z,96793.38
2018-11-23T22:45:54.794Z,96788.78
2018-11-23T22:48:26.267Z,96792.17
2018-11-23T22:50:57.335Z,96778.52
2018-11-23T22:53:28.419Z,96775.59
2018-11-23T22:55:59.787Z,96767.30
2018-11-23T22:58:30.829Z,96777.06
2018-11-23T23:01:05.122Z,96783.03
2018-11-23T23:03:36.223Z,96786.52
2018-11-23T23:06:07.538Z,96788.17
2018-11-23T23:08:38.576Z,96786.55
2018-11-23T23:11:09.753Z,96790.07
2018-11-23T23:13:41.110Z,96785.34
2018-11-23T23:16:12.387Z,96779.34
2018-11-23T23:18:43.823Z,96784.97
2018-11-23T23:21:15.295Z,96776.58
2018-11-23T23:23:46.330Z,96769.92
2018-11-23T23:26:17.351Z,96765.13
2018-11-23T23:28:48.853Z,96769.52
2018-11-23T23:31:20.099Z,96768.18
2018-11-23T23:33:51.578Z,96756.70
2018-11-23T23:36:22.876Z,96746.00
2018-11-23T23:38:54.062Z,96745.97
2018-11-23T23:41:25.671Z,96755.80
2018-11-23T23:43:56.703Z,96764.30
2018-11-23T23:46:27.780Z,96755.43
2018-11-23T23:48:59.209Z,96749.23
2018-11-23T23:51:30.514Z,96757.42
2018-11-23T23:54:02.002Z,96746.03
2018-11-23T23:56:33.260Z,96734.77
2018-11-23T23:59:04.525Z,96725.72
